sensor_id;sensor_type;location;lat;lon;timestamp;temperature;humidity
17891;DHT22;9071;48.220;14.480;2022-07-15T00:04:31;19.80;99.90
17891;DHT22;9071;48.220;14.480;2022-07-15T00:09:33;19.80;99.90
17891;DHT22;9071;48.220;14.480;2022-07-15T00:14:54;19.80;99.90
17891;DHT22;9071;48.220;14.480;2022-07-15T00:19:56;19.80;99.90
17891;DHT22;9071;48.220;14.480;2022-07-15T00:24:58;19.90;99.90
17891;DHT22;9071;48.220;14.480;2022-07-15T00:30:02;19.90;99.90
17891;DHT22;9071;48.220;14.480;2022-07-15T00:35:05;20.00;99.90
17891;DHT22;9071;48.220;14.480;2022-07-15T00:40:08;19.80;99.90
17891;DHT22;9071;48.220;14.480;2022-07-15T00:45:11;19.60;99.90
17891;DHT22;9071;48.220;14.480;2022-07-15T00:50:15;19.40;99.90
17891;DHT22;9071;48.220;14.480;2022-07-15T00:55:18;19.40;99.90
17891;DHT22;9071;48.220;14.480;2022-07-15T01:00:23;19.30;99.90
17891;DHT22;9071;48.220;14.480;2022-07-15T01:05:26;19.30;99.90
17891;DHT22;9071;48.220;14.480;2022-07-15T01:10:28;19.20;99.90
17891;DHT22;9071;48.220;14.480;2022-07-15T01:15:32;19.00;99.90
17891;DHT22;9071;48.220;14.480;2022-07-15T01:20:39;18.70;99.90
17891;DHT22;9071;48.220;14.480;2022-07-15T01:25:41;18.40;99.90
17891;DHT22;9071;48.220;14.480;2022-07-15T01:30:45;18.20;99.90
17891;DHT22;9071;48.220;14.480;2022-07-15T01:35:48;18.10;99.90
17891;DHT22;9071;48.220;14.480;2022-07-15T01:40:51;17.90;99.90
17891;DHT22;9071;48.220;14.480;2022-07-15T01:45:54;17.70;99.90
17891;DHT22;9071;48.220;14.480;2022-07-15T01:50:59;17.50;99.90
17891;DHT22;9071;48.220;14.480;2022-07-15T01:56:01;17.40;99.90
17891;DHT22;9071;48.220;14.480;2022-07-15T02:01:03;17.40;99.90
17891;DHT22;9071;48.220;14.480;2022-07-15T02:06:07;17.40;99.90
17891;DHT22;9071;48.220;14.480;2022-07-15T02:11:10;17.40;99.90
17891;DHT22;9071;48.220;14.480;2022-07-15T02:16:12;17.40;99.90
17891;DHT22;9071;48.220;14.480;2022-07-15T02:21:16;17.40;99.90
17891;DHT22;9071;48.220;14.480;2022-07-15T02:26:18;17.50;99.90
17891;DHT22;9071;48.220;14.480;2022-07-15T02:31:21;17.50;99.90
17891;DHT22;9071;48.220;14.480;2022-07-15T02:36:24;17.50;99.90
17891;DHT22;9071;48.220;14.480;2022-07-15T02:41:26;17.40;99.90
17891;DHT22;9071;48.220;14.480;2022-07-15T02:46:28;17.30;99.90
17891;DHT22;9071;48.220;14.480;2022-07-15T02:51:32;17.30;99.90
17891;DHT22;9071;48.220;14.480;2022-07-15T02:56:34;17.20;99.90
17891;DHT22;9071;48.220;14.480;2022-07-15T03:01:37;17.10;99.90
17891;DHT22;9071;48.220;14.480;2022-07-15T03:06:41;17.10;99.90
17891;DHT22;9071;48.220;14.480;2022-07-15T03:11:43;17.00;99.90
17891;DHT22;9071;48.220;14.480;2022-07-15T03:16:45;17.10;99.90
17891;DHT22;9071;48.220;14.480;2022-07-15T03:21:49;17.10;99.90
17891;DHT22;9071;48.220;14.480;2022-07-15T03:26:51;17.10;99.90
17891;DHT22;9071;48.220;14.480;2022-07-15T03:31:53;17.00;99.90
17891;DHT22;9071;48.220;14.480;2022-07-15T03:36:56;17.10;99.90
17891;DHT22;9071;48.220;14.480;2022-07-15T03:41:59;17.10;99.90
17891;DHT22;9071;48.220;14.480;2022-07-15T03:47:01;17.10;99.90
17891;DHT22;9071;48.220;14.480;2022-07-15T03:52:05;17.20;99.90
17891;DHT22;9071;48.220;14.480;2022-07-15T03:57:07;17.30;99.90
17891;DHT22;9071;48.220;14.480;2022-07-15T04:02:09;17.30;99.90
17891;DHT22;9071;48.220;14.480;2022-07-15T04:07:13;17.30;99.90
17891;DHT22;9071;48.220;14.480;2022-07-15T04:12:15;17.50;99.90
17891;DHT22;9071;48.220;14.480;2022-07-15T04:17:17;17.60;99.90
17891;DHT22;9071;48.220;14.480;2022-07-15T04:22:20;17.80;99.90
17891;DHT22;9071;48.220;14.480;2022-07-15T04:27:22;18.00;99.90
17891;DHT22;9071;48.220;14.480;2022-07-15T04:32:25;18.30;99.90
17891;DHT22;9071;48.220;14.480;2022-07-15T04:37:29;18.50;99.90
17891;DHT22;9071;48.220;14.480;2022-07-15T04:42:31;18.60;99.90
17891;DHT22;9071;48.220;14.480;2022-07-15T04:47:33;18.60;99.90
17891;DHT22;9071;48.220;14.480;2022-07-15T04:52:36;18.50;99.90
17891;DHT22;9071;48.220;14.480;2022-07-15T04:57:39;18.60;99.90
17891;DHT22;9071;48.220;14.480;2022-07-15T05:02:41;18.80;99.90
17891;DHT22;9071;48.220;14.480;2022-07-15T05:07:44;19.10;99.90
17891;DHT22;9071;48.220;14.480;2022-07-15T05:12:46;19.30;99.90
17891;DHT22;9071;48.220;14.480;2022-07-15T05:17:48;19.30;99.90
17891;DHT22;9071;48.220;14.480;2022-07-15T05:22:52;19.50;99.90
17891;DHT22;9071;48.220;14.480;2022-07-15T05:27:54;19.70;99.90
17891;DHT22;9071;48.220;14.480;2022-07-15T05:32:57;19.80;99.90
17891;DHT22;9071;48.220;14.480;2022-07-15T05:38:00;20.40;99.90
17891;DHT22;9071;48.220;14.480;2022-07-15T05:43:02;23.20;99.90
17891;DHT22;9071;48.220;14.480;2022-07-15T05:48:05;25.00;99.90
17891;DHT22;9071;48.220;14.480;2022-07-15T05:53:08;25.90;99.90
17891;DHT22;9071;48.220;14.480;2022-07-15T05:58:11;25.60;99.90
17891;DHT22;9071;48.220;14.480;2022-07-15T06:03:13;25.80;99.90
17891;DHT22;9071;48.220;14.480;2022-07-15T06:08:16;26.80;99.90
17891;DHT22;9071;48.220;14.480;2022-07-15T06:13:18;27.80;99.90
17891;DHT22;9071;48.220;14.480;2022-07-15T06:18:21;27.70;99.90
17891;DHT22;9071;48.220;14.480;2022-07-15T06:23:26;28.40;99.90
17891;DHT22;9071;48.220;14.480;2022-07-15T06:28:29;26.20;99.90
17891;DHT22;9071;48.220;14.480;2022-07-15T06:33:31;25.40;99.90
17891;DHT22;9071;48.220;14.480;2022-07-15T06:38:35;27.10;99.90
17891;DHT22;9071;48.220;14.480;2022-07-15T06:43:37;27.90;99.90
17891;DHT22;9071;48.220;14.480;2022-07-15T06:48:40;28.90;99.90
17891;DHT22;9071;48.220;14.480;2022-07-15T06:53:44;29.00;99.90
17891;DHT22;9071;48.220;14.480;2022-07-15T06:58:46;26.50;99.90
17891;DHT22;9071;48.220;14.480;2022-07-15T07:03:48;26.80;99.90
17891;DHT22;9071;48.220;14.480;2022-07-15T07:08:52;26.60;99.90
17891;DHT22;9071;48.220;14.480;2022-07-15T07:13:54;27.00;99.90
17891;DHT22;9071;48.220;14.480;2022-07-15T07:18:56;28.60;99.90
17891;DHT22;9071;48.220;14.480;2022-07-15T07:24:00;26.80;99.90
17891;DHT22;9071;48.220;14.480;2022-07-15T07:29:02;26.90;99.90
17891;DHT22;9071;48.220;14.480;2022-07-15T07:34:05;25.70;99.90
17891;DHT22;9071;48.220;14.480;2022-07-15T07:39:08;25.40;99.90
17891;DHT22;9071;48.220;14.480;2022-07-15T07:44:11;25.00;99.90
17891;DHT22;9071;48.220;14.480;2022-07-15T07:49:13;26.60;99.90
17891;DHT22;9071;48.220;14.480;2022-07-15T07:54:17;27.20;99.90
17891;DHT22;9071;48.220;14.480;2022-07-15T07:59:19;27.60;99.90
17891;DHT22;9071;48.220;14.480;2022-07-15T08:04:21;26.10;99.90
17891;DHT22;9071;48.220;14.480;2022-07-15T08:09:24;25.80;99.90
17891;DHT22;9071;48.220;14.480;2022-07-15T08:14:27;26.30;99.90
17891;DHT22;9071;48.220;14.480;2022-07-15T08:19:29;26.00;99.90
17891;DHT22;9071;48.220;14.480;2022-07-15T08:24:33;25.60;99.90
17891;DHT22;9071;48.220;14.480;2022-07-15T08:29:35;23.70;99.90
17891;DHT22;9071;48.220;14.480;2022-07-15T08:34:37;23.30;99.90
17891;DHT22;9071;48.220;14.480;2022-07-15T08:39:42;23.60;99.90
17891;DHT22;9071;48.220;14.480;2022-07-15T08:44:45;23.10;99.90
17891;DHT22;9071;48.220;14.480;2022-07-15T08:49:47;23.50;99.90
17891;DHT22;9071;48.220;14.480;2022-07-15T08:54:53;23.10;99.90
17891;DHT22;9071;48.220;14.480;2022-07-15T08:59:55;23.10;99.90
17891;DHT22;9071;48.220;14.480;2022-07-15T09:05:24;23.50;99.90
17891;DHT22;9071;48.220;14.480;2022-07-15T09:10:47;23.80;99.90
17891;DHT22;9071;48.220;14.480;2022-07-15T09:15:50;24.30;99.90
17891;DHT22;9071;48.220;14.480;2022-07-15T09:20:53;24.80;99.90
17891;DHT22;9071;48.220;14.480;2022-07-15T09:25:58;24.80;99.90
17891;DHT22;9071;48.220;14.480;2022-07-15T09:31:01;24.40;99.90
17891;DHT22;9071;48.220;14.480;2022-07-15T09:36:22;24.40;99.90
17891;DHT22;9071;48.220;14.480;2022-07-15T09:41:31;24.70;99.90
17891;DHT22;9071;48.220;14.480;2022-07-15T09:46:43;24.50;99.90
17891;DHT22;9071;48.220;14.480;2022-07-15T09:51:48;24.80;99.90
17891;DHT22;9071;48.220;14.480;2022-07-15T09:56:52;24.40;99.90
17891;DHT22;9071;48.220;14.480;2022-07-15T10:01:55;24.70;99.90
17891;DHT22;9071;48.220;14.480;2022-07-15T10:06:59;24.80;99.90
17891;DHT22;9071;48.220;14.480;2022-07-15T10:12:08;24.80;99.90
17891;DHT22;9071;48.220;14.480;2022-07-15T10:22:55;25.10;99.90
17891;DHT22;9071;48.220;14.480;2022-07-15T10:28:05;24.80;99.90
17891;DHT22;9071;48.220;14.480;2022-07-15T10:33:09;25.30;99.90
17891;DHT22;9071;48.220;14.480;2022-07-15T10:38:26;24.70;99.90
17891;DHT22;9071;48.220;14.480;2022-07-15T10:43:45;25.00;99.90
17891;DHT22;9071;48.220;14.480;2022-07-15T10:48:49;25.30;99.90
17891;DHT22;9071;48.220;14.480;2022-07-15T10:53:51;25.10;99.90
17891;DHT22;9071;48.220;14.480;2022-07-15T10:59:11;25.10;99.90
17891;DHT22;9071;48.220;14.480;2022-07-15T11:04:17;25.20;99.90
17891;DHT22;9071;48.220;14.480;2022-07-15T11:09:44;25.40;99.90
17891;DHT22;9071;48.220;14.480;2022-07-15T11:14:50;26.00;99.90
17891;DHT22;9071;48.220;14.480;2022-07-15T11:19:55;26.00;99.90
17891;DHT22;9071;48.220;14.480;2022-07-15T11:24:57;26.10;99.90
17891;DHT22;9071;48.220;14.480;2022-07-15T11:30:03;26.40;99.90
17891;DHT22;9071;48.220;14.480;2022-07-15T11:35:05;26.60;99.90
17891;DHT22;9071;48.220;14.480;2022-07-15T11:40:10;26.40;99.90
17891;DHT22;9071;48.220;14.480;2022-07-15T11:45:13;26.90;99.90
17891;DHT22;9071;48.220;14.480;2022-07-15T11:50:15;27.10;99.90
17891;DHT22;9071;48.220;14.480;2022-07-15T11:55:17;26.70;99.90
17891;DHT22;9071;48.220;14.480;2022-07-15T12:00:29;26.70;99.90
17891;DHT22;9071;48.220;14.480;2022-07-15T12:05:31;26.30;99.90
17891;DHT22;9071;48.220;14.480;2022-07-15T12:10:35;26.60;99.90
17891;DHT22;9071;48.220;14.480;2022-07-15T12:15:40;26.30;99.90
17891;DHT22;9071;48.220;14.480;2022-07-15T12:20:42;26.80;99.90
17891;DHT22;9071;48.220;14.480;2022-07-15T12:25:44;27.20;99.90
17891;DHT22;9071;48.220;14.480;2022-07-15T12:30:48;27.50;99.90
17891;DHT22;9071;48.220;14.480;2022-07-15T12:35:50;27.70;99.90
17891;DHT22;9071;48.220;14.480;2022-07-15T12:41:23;27.00;99.90
17891;DHT22;9071;48.220;14.480;2022-07-15T12:46:51;27.10;99.90
17891;DHT22;9071;48.220;14.480;2022-07-15T12:51:56;26.50;99.90
17891;DHT22;9071;48.220;14.480;2022-07-15T12:56:58;26.40;99.90
17891;DHT22;9071;48.220;14.480;2022-07-15T13:02:04;26.90;99.90
17891;DHT22;9071;48.220;14.480;2022-07-15T13:07:06;26.60;99.90
17891;DHT22;9071;48.220;14.480;2022-07-15T13:12:09;26.60;99.90
17891;DHT22;9071;48.220;14.480;2022-07-15T13:17:12;26.70;99.90
17891;DHT22;9071;48.220;14.480;2022-07-15T13:22:15;26.80;99.90
17891;DHT22;9071;48.220;14.480;2022-07-15T13:27:17;26.80;99.90
17891;DHT22;9071;48.220;14.480;2022-07-15T13:32:20;27.10;99.90
17891;DHT22;9071;48.220;14.480;2022-07-15T13:37:22;27.00;99.90
17891;DHT22;9071;48.220;14.480;2022-07-15T13:42:25;26.90;99.90
17891;DHT22;9071;48.220;14.480;2022-07-15T13:47:28;27.10;99.90
17891;DHT22;9071;48.220;14.480;2022-07-15T13:52:31;27.30;99.90
17891;DHT22;9071;48.220;14.480;2022-07-15T13:57:33;27.10;99.90
17891;DHT22;9071;48.220;14.480;2022-07-15T14:02:38;26.80;99.90
17891;DHT22;9071;48.220;14.480;2022-07-15T14:07:40;26.70;99.90
17891;DHT22;9071;48.220;14.480;2022-07-15T14:12:43;26.80;99.90
17891;DHT22;9071;48.220;14.480;2022-07-15T14:17:46;26.90;99.90
17891;DHT22;9071;48.220;14.480;2022-07-15T14:22:48;27.00;99.90
17891;DHT22;9071;48.220;14.480;2022-07-15T14:27:51;26.90;99.90
17891;DHT22;9071;48.220;14.480;2022-07-15T14:32:54;26.70;99.90
17891;DHT22;9071;48.220;14.480;2022-07-15T14:37:57;26.60;99.90
17891;DHT22;9071;48.220;14.480;2022-07-15T14:42:59;26.60;99.90
17891;DHT22;9071;48.220;14.480;2022-07-15T14:48:03;26.60;99.90
17891;DHT22;9071;48.220;14.480;2022-07-15T14:53:07;26.70;99.90
17891;DHT22;9071;48.220;14.480;2022-07-15T14:58:09;26.80;99.90
17891;DHT22;9071;48.220;14.480;2022-07-15T15:03:14;26.60;99.90
17891;DHT22;9071;48.220;14.480;2022-07-15T15:08:17;26.70;99.90
17891;DHT22;9071;48.220;14.480;2022-07-15T15:13:19;26.60;99.90
17891;DHT22;9071;48.220;14.480;2022-07-15T15:18:22;26.60;99.90
17891;DHT22;9071;48.220;14.480;2022-07-15T15:23:24;26.50;99.90
17891;DHT22;9071;48.220;14.480;2022-07-15T15:28:26;26.60;99.90
17891;DHT22;9071;48.220;14.480;2022-07-15T15:33:31;26.50;99.90
17891;DHT22;9071;48.220;14.480;2022-07-15T15:38:33;26.60;99.90
17891;DHT22;9071;48.220;14.480;2022-07-15T15:43:36;26.50;99.90
17891;DHT22;9071;48.220;14.480;2022-07-15T15:48:39;26.40;99.90
17891;DHT22;9071;48.220;14.480;2022-07-15T15:53:41;26.30;99.90
17891;DHT22;9071;48.220;14.480;2022-07-15T15:58:44;26.20;99.90
17891;DHT22;9071;48.220;14.480;2022-07-15T16:03:47;26.30;99.90
17891;DHT22;9071;48.220;14.480;2022-07-15T16:08:49;26.20;99.90
17891;DHT22;9071;48.220;14.480;2022-07-15T16:13:51;26.10;99.90
17891;DHT22;9071;48.220;14.480;2022-07-15T16:18:55;26.10;99.90
17891;DHT22;9071;48.220;14.480;2022-07-15T16:23:57;26.10;99.90
17891;DHT22;9071;48.220;14.480;2022-07-15T16:28:59;26.00;99.90
17891;DHT22;9071;48.220;14.480;2022-07-15T16:34:03;25.90;99.90
17891;DHT22;9071;48.220;14.480;2022-07-15T16:39:05;25.80;99.90
17891;DHT22;9071;48.220;14.480;2022-07-15T16:44:07;25.60;99.90
17891;DHT22;9071;48.220;14.480;2022-07-15T16:49:10;25.70;99.90
17891;DHT22;9071;48.220;14.480;2022-07-15T16:54:12;25.50;99.90
17891;DHT22;9071;48.220;14.480;2022-07-15T16:59:14;25.30;99.90
17891;DHT22;9071;48.220;14.480;2022-07-15T17:04:18;25.10;99.90
17891;DHT22;9071;48.220;14.480;2022-07-15T17:09:20;24.80;99.90
17891;DHT22;9071;48.220;14.480;2022-07-15T17:14:22;24.50;99.90
17891;DHT22;9071;48.220;14.480;2022-07-15T17:19:26;24.30;99.90
17891;DHT22;9071;48.220;14.480;2022-07-15T17:24:28;24.10;99.90
17891;DHT22;9071;48.220;14.480;2022-07-15T17:29:31;24.00;99.90
17891;DHT22;9071;48.220;14.480;2022-07-15T17:34:34;23.90;99.90
17891;DHT22;9071;48.220;14.480;2022-07-15T17:39:36;23.90;99.90
17891;DHT22;9071;48.220;14.480;2022-07-15T17:44:38;23.80;99.90
17891;DHT22;9071;48.220;14.480;2022-07-15T17:49:42;23.60;99.90
17891;DHT22;9071;48.220;14.480;2022-07-15T17:54:44;23.50;99.90
17891;DHT22;9071;48.220;14.480;2022-07-15T17:59:47;23.30;99.90
17891;DHT22;9071;48.220;14.480;2022-07-15T18:04:50;23.10;99.90
17891;DHT22;9071;48.220;14.480;2022-07-15T18:09:52;23.00;99.90
17891;DHT22;9071;48.220;14.480;2022-07-15T18:14:54;22.90;99.90
17891;DHT22;9071;48.220;14.480;2022-07-15T18:19:58;22.60;99.90
17891;DHT22;9071;48.220;14.480;2022-07-15T18:25:00;22.40;99.90
17891;DHT22;9071;48.220;14.480;2022-07-15T18:30:03;22.10;99.90
17891;DHT22;9071;48.220;14.480;2022-07-15T18:35:08;21.90;99.90
17891;DHT22;9071;48.220;14.480;2022-07-15T18:40:11;21.60;99.90
17891;DHT22;9071;48.220;14.480;2022-07-15T18:45:13;21.40;99.90
17891;DHT22;9071;48.220;14.480;2022-07-15T18:50:16;21.20;99.90
17891;DHT22;9071;48.220;14.480;2022-07-15T18:55:18;21.00;99.90
17891;DHT22;9071;48.220;14.480;2022-07-15T19:00:21;20.70;99.90
17891;DHT22;9071;48.220;14.480;2022-07-15T19:05:25;20.70;99.90
17891;DHT22;9071;48.220;14.480;2022-07-15T19:10:27;20.50;99.90
17891;DHT22;9071;48.220;14.480;2022-07-15T19:15:29;20.30;99.90
17891;DHT22;9071;48.220;14.480;2022-07-15T19:20:33;20.10;99.90
17891;DHT22;9071;48.220;14.480;2022-07-15T19:25:35;19.90;99.90
17891;DHT22;9071;48.220;14.480;2022-07-15T19:30:37;19.80;99.90
17891;DHT22;9071;48.220;14.480;2022-07-15T19:35:41;19.90;99.90
17891;DHT22;9071;48.220;14.480;2022-07-15T19:40:43;19.80;99.90
17891;DHT22;9071;48.220;14.480;2022-07-15T19:45:45;19.90;99.90
17891;DHT22;9071;48.220;14.480;2022-07-15T19:50:48;19.70;99.90
17891;DHT22;9071;48.220;14.480;2022-07-15T19:55:50;19.60;99.90
17891;DHT22;9071;48.220;14.480;2022-07-15T20:00:52;19.40;99.90
17891;DHT22;9071;48.220;14.480;2022-07-15T20:05:56;19.20;99.90
17891;DHT22;9071;48.220;14.480;2022-07-15T20:10:59;18.90;99.90
17891;DHT22;9071;48.220;14.480;2022-07-15T20:16:01;18.60;99.90
17891;DHT22;9071;48.220;14.480;2022-07-15T20:21:06;18.30;99.90
17891;DHT22;9071;48.220;14.480;2022-07-15T20:26:08;18.30;99.90
17891;DHT22;9071;48.220;14.480;2022-07-15T20:31:10;18.40;99.90
17891;DHT22;9071;48.220;14.480;2022-07-15T20:36:14;18.20;99.90
17891;DHT22;9071;48.220;14.480;2022-07-15T20:41:16;18.30;99.90
17891;DHT22;9071;48.220;14.480;2022-07-15T20:46:18;18.20;99.90
17891;DHT22;9071;48.220;14.480;2022-07-15T20:51:22;18.10;99.90
17891;DHT22;9071;48.220;14.480;2022-07-15T20:56:24;17.80;99.90
17891;DHT22;9071;48.220;14.480;2022-07-15T21:01:27;17.60;99.90
17891;DHT22;9071;48.220;14.480;2022-07-15T21:06:30;17.40;99.90
17891;DHT22;9071;48.220;14.480;2022-07-15T21:11:34;17.30;99.90
17891;DHT22;9071;48.220;14.480;2022-07-15T21:16:36;17.20;99.90
17891;DHT22;9071;48.220;14.480;2022-07-15T21:21:40;17.10;99.90
17891;DHT22;9071;48.220;14.480;2022-07-15T21:26:42;17.10;99.90
17891;DHT22;9071;48.220;14.480;2022-07-15T21:31:47;17.10;99.90
17891;DHT22;9071;48.220;14.480;2022-07-15T21:36:50;17.00;99.90
17891;DHT22;9071;48.220;14.480;2022-07-15T21:41:52;17.00;99.90
17891;DHT22;9071;48.220;14.480;2022-07-15T21:46:55;17.00;99.90
17891;DHT22;9071;48.220;14.480;2022-07-15T21:51:58;17.10;99.90
17891;DHT22;9071;48.220;14.480;2022-07-15T21:57:00;17.00;99.90
17891;DHT22;9071;48.220;14.480;2022-07-15T22:02:02;16.80;99.90
17891;DHT22;9071;48.220;14.480;2022-07-15T22:07:07;16.50;99.90
17891;DHT22;9071;48.220;14.480;2022-07-15T22:12:09;16.30;99.90
17891;DHT22;9071;48.220;14.480;2022-07-15T22:17:11;16.20;99.90
17891;DHT22;9071;48.220;14.480;2022-07-15T22:22:15;16.10;99.90
17891;DHT22;9071;48.220;14.480;2022-07-15T22:27:17;16.00;99.90
17891;DHT22;9071;48.220;14.480;2022-07-15T22:32:19;15.90;99.90
17891;DHT22;9071;48.220;14.480;2022-07-15T22:37:23;15.90;99.90
17891;DHT22;9071;48.220;14.480;2022-07-15T22:42:25;15.80;99.90
17891;DHT22;9071;48.220;14.480;2022-07-15T22:47:27;15.80;99.90
17891;DHT22;9071;48.220;14.480;2022-07-15T22:52:31;15.90;99.90
17891;DHT22;9071;48.220;14.480;2022-07-15T22:57:33;15.80;99.90
17891;DHT22;9071;48.220;14.480;2022-07-15T23:02:35;15.70;99.90
17891;DHT22;9071;48.220;14.480;2022-07-15T23:07:39;15.70;99.90
17891;DHT22;9071;48.220;14.480;2022-07-15T23:12:41;15.60;99.90
17891;DHT22;9071;48.220;14.480;2022-07-15T23:17:43;15.50;99.90
17891;DHT22;9071;48.220;14.480;2022-07-15T23:22:47;15.40;99.90
17891;DHT22;9071;48.220;14.480;2022-07-15T23:27:49;15.20;99.90
17891;DHT22;9071;48.220;14.480;2022-07-15T23:32:51;15.10;99.90
17891;DHT22;9071;48.220;14.480;2022-07-15T23:37:54;15.00;99.90
17891;DHT22;9071;48.220;14.480;2022-07-15T23:42:56;14.90;99.90
17891;DHT22;9071;48.220;14.480;2022-07-15T23:47:59;14.80;99.90
17891;DHT22;9071;48.220;14.480;2022-07-15T23:53:02;14.70;99.90
17891;DHT22;9071;48.220;14.480;2022-07-15T23:58:04;14.70;99.90
